createdAt,value
2018-07-16T00:01:42.899Z,86.80
2018-07-16T00:04:11.807Z,86.70
2018-07-16T00:06:40.724Z,86.70
2018-07-16T00:09:09.639Z,86.30
2018-07-16T00:11:38.534Z,86.00
2018-07-16T00:14:07.490Z,84.70
2018-07-16T00:16:36.399Z,85.70
2018-07-16T00:19:05.275Z,85.60
2018-07-16T00:21:34.259Z,84.30
2018-07-16T00:24:03.158Z,85.60
2018-07-16T00:26:32.098Z,86.30
2018-07-16T00:29:00.975Z,85.70
2018-07-16T00:31:29.858Z,84.60
2018-07-16T00:36:27.238Z,85.70
2018-07-16T00:38:56.135Z,85.00
2018-07-16T00:41:25.023Z,87.50
2018-07-16T00:43:53.896Z,87.50
2018-07-16T00:46:22.827Z,90.20
2018-07-16T00:48:51.730Z,90.80
2018-07-16T00:51:20.641Z,90.00
2018-07-16T00:53:49.650Z,89.60
2018-07-16T00:56:18.587Z,89.80
2018-07-16T00:58:47.538Z,90.00
2018-07-16T01:01:16.458Z,90.40
2018-07-16T01:03:45.430Z,91.20
2018-07-16T01:06:14.319Z,92.10
2018-07-16T01:08:43.216Z,92.40
2018-07-16T01:11:12.100Z,91.70
2018-07-16T01:13:40.994Z,91.60
2018-07-16T01:16:09.930Z,90.90
2018-07-16T01:18:38.835Z,90.80
2018-07-16T01:21:07.742Z,91.20
2018-07-16T01:23:36.666Z,91.20
2018-07-16T01:26:05.801Z,90.60
2018-07-16T01:28:34.695Z,91.40
2018-07-16T01:31:03.602Z,92.20
2018-07-16T01:33:32.542Z,92.60
2018-07-16T01:36:01.492Z,92.80
2018-07-16T01:38:30.402Z,93.10
2018-07-16T01:40:59.277Z,92.70
2018-07-16T01:43:28.215Z,92.80
2018-07-16T01:45:57.113Z,92.40
2018-07-16T01:48:25.982Z,92.30
2018-07-16T01:50:55.021Z,91.60
2018-07-16T01:53:23.915Z,91.90
2018-07-16T01:55:52.830Z,91.70
2018-07-16T01:58:21.745Z,91.60
2018-07-16T02:01:00.534Z,92.00
2018-07-16T02:03:33.494Z,91.00
2018-07-16T02:06:02.472Z,90.50
2018-07-16T02:08:31.342Z,90.10
2018-07-16T02:11:00.230Z,89.80
2018-07-16T02:13:29.114Z,89.80
2018-07-16T02:15:58.022Z,89.50
2018-07-16T02:18:26.902Z,88.20
2018-07-16T02:20:55.816Z,88.20
2018-07-16T02:23:24.726Z,88.10
2018-07-16T02:25:53.658Z,89.50
2018-07-16T02:28:22.594Z,90.00
2018-07-16T02:30:51.498Z,89.60
2018-07-16T02:33:20.399Z,89.40
2018-07-16T02:35:49.294Z,89.50
2018-07-16T02:38:18.217Z,88.20
2018-07-16T02:40:47.109Z,88.20
2018-07-16T02:43:16.006Z,89.50
2018-07-16T02:45:44.946Z,90.60
2018-07-16T02:48:13.855Z,89.90
2018-07-16T02:50:42.746Z,89.50
2018-07-16T02:53:11.702Z,89.50
2018-07-16T02:55:40.582Z,88.30
2018-07-16T02:58:09.488Z,88.40
2018-07-16T03:00:38.364Z,86.00
2018-07-16T03:03:07.254Z,87.00
2018-07-16T03:05:36.151Z,86.70
2018-07-16T03:08:05.076Z,85.60
2018-07-16T03:10:33.959Z,85.20
2018-07-16T03:13:02.870Z,85.20
2018-07-16T03:15:31.777Z,87.70
2018-07-16T03:18:00.728Z,88.40
2018-07-16T03:20:29.666Z,88.20
2018-07-16T03:22:58.563Z,87.20
2018-07-16T03:25:27.464Z,88.50
2018-07-16T03:30:24.850Z,87.10
2018-07-16T03:32:53.753Z,88.60
2018-07-16T03:35:22.646Z,88.40
2018-07-16T03:37:51.562Z,90.00
2018-07-16T03:40:20.472Z,90.20
2018-07-16T03:42:49.366Z,90.50
2018-07-16T03:45:18.393Z,90.80
2018-07-16T03:47:47.310Z,91.50
2018-07-16T03:50:16.193Z,92.50
2018-07-16T03:52:45.099Z,92.90
2018-07-16T03:55:14.016Z,93.30
2018-07-16T03:57:42.933Z,93.60
2018-07-16T04:00:11.816Z,93.40
2018-07-16T04:02:40.730Z,93.80
2018-07-16T04:05:09.622Z,93.30
2018-07-16T04:07:38.530Z,93.60
2018-07-16T04:10:07.430Z,93.40
2018-07-16T04:12:36.322Z,94.00
2018-07-16T04:15:05.226Z,94.50
2018-07-16T04:17:34.126Z,94.90
2018-07-16T04:20:03.025Z,94.60
2018-07-16T04:22:31.945Z,94.20
2018-07-16T04:25:00.838Z,95.10
2018-07-16T04:27:29.782Z,94.00
2018-07-16T04:29:58.674Z,94.90
2018-07-16T04:32:27.557Z,94.90
2018-07-16T04:34:56.442Z,95.20
2018-07-16T04:37:25.378Z,96.20
2018-07-16T04:39:54.468Z,96.00
2018-07-16T04:42:23.465Z,96.00
2018-07-16T04:44:52.417Z,95.90
2018-07-16T04:47:21.314Z,95.20
2018-07-16T04:49:57.925Z,94.00
2018-07-16T04:52:28.047Z,94.20
2018-07-16T04:54:57.021Z,93.60
2018-07-16T04:59:54.558Z,88.40
2018-07-16T05:02:23.450Z,84.80
2018-07-16T05:04:52.350Z,86.10
2018-07-16T05:07:21.317Z,86.10
2018-07-16T05:09:50.246Z,85.20
2018-07-16T05:12:19.181Z,85.70
2018-07-16T05:14:48.169Z,90.20
2018-07-16T05:17:17.150Z,91.90
2018-07-16T05:19:46.755Z,92.40
2018-07-16T05:22:15.684Z,92.30
2018-07-16T05:24:44.598Z,91.70
2018-07-16T05:27:13.490Z,92.50
2018-07-16T05:29:42.545Z,93.60
2018-07-16T05:32:11.545Z,93.30
2018-07-16T05:34:40.365Z,93.60
2018-07-16T05:37:09.276Z,93.60
2018-07-16T05:39:38.214Z,92.20
2018-07-16T05:42:07.119Z,90.80
2018-07-16T05:47:04.955Z,93.30
2018-07-16T05:49:33.840Z,94.40
2018-07-16T05:52:02.728Z,93.50
2018-07-16T05:54:31.611Z,94.40
2018-07-16T05:57:00.496Z,95.50
2018-07-16T05:59:29.420Z,95.90
2018-07-16T06:01:58.302Z,95.50
2018-07-16T06:04:27.188Z,95.60
2018-07-16T06:06:56.058Z,95.70
2018-07-16T06:09:24.954Z,95.50
2018-07-16T06:11:53.843Z,94.50
2018-07-16T06:14:22.811Z,93.70
2018-07-16T06:16:51.737Z,93.20
2018-07-16T06:19:20.584Z,92.90
2018-07-16T06:21:49.514Z,92.00
2018-07-16T06:24:18.435Z,92.30
2018-07-16T06:26:47.410Z,91.30
2018-07-16T06:29:16.322Z,92.10
2018-07-16T06:31:45.242Z,91.50
2018-07-16T06:34:14.142Z,90.40
2018-07-16T06:36:43.034Z,91.40
2018-07-16T06:39:11.930Z,89.80
2018-07-16T06:41:40.866Z,87.90
2018-07-16T06:44:10.099Z,89.80
2018-07-16T06:46:39.033Z,89.20
2018-07-16T06:49:08.594Z,90.30
2018-07-16T06:51:37.514Z,88.60
2018-07-16T06:54:06.485Z,89.10
2018-07-16T06:56:35.359Z,90.00
2018-07-16T06:59:04.399Z,90.30
2018-07-16T07:01:33.325Z,90.10
2018-07-16T07:04:02.235Z,89.10
2018-07-16T07:06:31.427Z,88.10
2018-07-16T07:09:00.496Z,88.10
2018-07-16T07:13:57.960Z,89.60
2018-07-16T07:16:26.838Z,88.40
2018-07-16T07:18:55.786Z,85.40
2018-07-16T07:21:24.715Z,87.80
2018-07-16T07:23:53.590Z,86.40
2018-07-16T07:26:22.533Z,88.20
2018-07-16T07:28:51.458Z,85.60
2018-07-16T07:31:20.410Z,87.90
2018-07-16T07:33:49.302Z,87.50
2018-07-16T07:36:18.222Z,89.70
2018-07-16T07:38:47.137Z,89.20
2018-07-16T07:41:16.039Z,90.00
2018-07-16T07:43:45.027Z,91.60
2018-07-16T07:46:13.931Z,91.30
2018-07-16T07:48:42.866Z,88.40
2018-07-16T07:51:11.763Z,90.40
2018-07-16T07:53:40.655Z,88.50
2018-07-16T07:56:09.570Z,84.20
2018-07-16T07:58:38.479Z,88.10
2018-07-16T08:01:07.920Z,86.80
2018-07-16T08:03:36.824Z,82.90
2018-07-16T08:06:06.174Z,83.50
2018-07-16T08:08:36.277Z,83.90
2018-07-16T08:11:05.808Z,82.80
2018-07-16T08:13:34.718Z,81.10
2018-07-16T08:16:03.674Z,82.00
2018-07-16T08:18:32.558Z,84.50
2018-07-16T08:21:01.543Z,85.00
2018-07-16T08:23:30.521Z,86.50
2018-07-16T08:25:59.426Z,77.20
2018-07-16T08:28:28.342Z,76.40
2018-07-16T08:30:57.319Z,77.30
2018-07-16T08:33:26.222Z,78.20
2018-07-16T08:35:55.115Z,74.90
2018-07-16T08:38:24.035Z,80.40
2018-07-16T08:40:52.981Z,74.90
2018-07-16T08:43:21.912Z,74.20
2018-07-16T08:45:50.858Z,74.40
2018-07-16T08:48:19.851Z,70.10
2018-07-16T08:50:48.830Z,73.00
2018-07-16T08:53:17.734Z,74.70
2018-07-16T08:55:46.713Z,73.30
2018-07-16T08:58:15.609Z,71.60
2018-07-16T09:00:44.500Z,72.40
2018-07-16T09:03:13.466Z,72.50
2018-07-16T09:05:42.362Z,68.30
2018-07-16T09:08:11.306Z,65.90
2018-07-16T09:10:40.189Z,67.20
2018-07-16T09:13:09.103Z,67.40
2018-07-16T09:15:37.989Z,68.70
2018-07-16T09:18:06.934Z,70.00
2018-07-16T09:20:35.842Z,68.50
2018-07-16T09:23:04.892Z,68.60
2018-07-16T09:25:33.909Z,64.20
2018-07-16T09:28:02.717Z,64.90
2018-07-16T09:30:31.619Z,63.60
2018-07-16T09:33:00.510Z,65.50
2018-07-16T09:35:29.398Z,61.90
2018-07-16T09:37:58.355Z,60.10
2018-07-16T09:40:31.946Z,58.70
2018-07-16T09:43:00.873Z,59.80
2018-07-16T09:45:29.763Z,61.40
2018-07-16T09:47:58.651Z,63.20
2018-07-16T09:50:27.542Z,60.60
2018-07-16T09:52:56.414Z,58.70
2018-07-16T09:55:25.314Z,59.50
2018-07-16T09:57:54.227Z,61.70
2018-07-16T10:00:28.517Z,61.40
2018-07-16T10:02:57.396Z,61.20
2018-07-16T10:05:26.323Z,63.90
2018-07-16T10:07:55.206Z,65.30
2018-07-16T10:10:24.094Z,62.20
2018-07-16T10:12:53.058Z,64.20
2018-07-16T10:15:21.958Z,62.90
2018-07-16T10:17:50.838Z,62.30
2018-07-16T10:20:19.937Z,62.50
2018-07-16T10:22:48.646Z,65.10
2018-07-16T10:25:17.547Z,65.10
2018-07-16T10:27:46.492Z,65.90
2018-07-16T10:30:15.495Z,65.30
2018-07-16T10:32:44.706Z,65.10
2018-07-16T10:35:13.606Z,64.20
2018-07-16T10:37:42.504Z,63.50
2018-07-16T10:40:11.401Z,64.30
2018-07-16T10:42:40.287Z,63.80
2018-07-16T10:45:09.234Z,65.40
2018-07-16T10:47:38.142Z,66.50
2018-07-16T10:50:07.122Z,62.00
2018-07-16T10:52:36.022Z,61.60
2018-07-16T10:55:05.094Z,61.50
2018-07-16T10:57:33.960Z,60.70
2018-07-16T11:00:03.493Z,65.60
2018-07-16T11:02:32.398Z,62.40
2018-07-16T11:05:01.320Z,60.80
2018-07-16T11:07:30.213Z,61.70
2018-07-16T11:09:59.087Z,61.10
2018-07-16T11:12:27.995Z,62.40
2018-07-16T11:14:56.944Z,63.90
2018-07-16T11:17:25.858Z,63.20
2018-07-16T11:19:54.794Z,63.20
2018-07-16T11:22:23.714Z,65.40
2018-07-16T11:24:52.652Z,63.80
2018-07-16T11:27:21.550Z,60.50
2018-07-16T11:29:50.598Z,63.10
2018-07-16T11:32:19.489Z,56.70
2018-07-16T11:34:48.415Z,57.10
2018-07-16T11:37:17.310Z,54.60
2018-07-16T11:39:46.205Z,54.10
2018-07-16T11:42:15.194Z,52.40
2018-07-16T11:44:44.082Z,53.60
2018-07-16T11:47:12.950Z,50.90
2018-07-16T11:49:41.855Z,53.90
2018-07-16T11:52:10.761Z,48.50
2018-07-16T11:54:39.632Z,50.80
2018-07-16T11:57:08.526Z,46.60
2018-07-16T11:59:37.398Z,42.40
2018-07-16T12:04:34.814Z,41.80
2018-07-16T12:07:03.758Z,40.90
2018-07-16T12:09:32.642Z,36.30
2018-07-16T12:12:01.543Z,31.60
2018-07-16T12:14:30.424Z,34.80
2018-07-16T12:16:59.767Z,32.70
2018-07-16T12:19:28.698Z,30.50
2018-07-16T12:21:57.626Z,29.50
2018-07-16T12:24:26.543Z,28.60
2018-07-16T12:26:55.542Z,27.20
2018-07-16T12:29:24.447Z,28.10
2018-07-16T12:31:53.442Z,28.80
2018-07-16T12:34:22.374Z,28.20
2018-07-16T12:36:51.375Z,29.10
2018-07-16T12:41:49.092Z,25.30
2018-07-16T12:44:17.994Z,27.70
2018-07-16T12:46:47.068Z,26.70
2018-07-16T12:49:15.886Z,23.80
2018-07-16T12:54:13.383Z,22.60
2018-07-16T12:56:42.266Z,23.40
2018-07-16T12:59:11.182Z,25.90
2018-07-16T13:01:40.058Z,23.40
2018-07-16T13:04:08.930Z,21.90
2018-07-16T13:06:37.851Z,23.20
2018-07-16T13:09:08.262Z,24.10
2018-07-16T13:14:05.884Z,23.30
2018-07-16T13:16:35.042Z,22.90
2018-07-16T13:19:03.951Z,24.00
2018-07-16T13:21:32.922Z,22.50
2018-07-16T13:24:01.934Z,24.70
2018-07-16T13:26:30.939Z,21.90
2018-07-16T13:28:59.859Z,22.10
2018-07-16T13:31:28.842Z,22.70
2018-07-16T13:33:57.861Z,22.00
2018-07-16T13:36:26.800Z,22.00
2018-07-16T13:38:55.751Z,21.50
2018-07-16T13:41:24.678Z,22.10
2018-07-16T13:43:53.585Z,22.80
2018-07-16T13:46:22.543Z,22.30
2018-07-16T13:48:51.594Z,21.70
2018-07-16T13:51:20.542Z,20.30
2018-07-16T13:53:49.463Z,18.50
2018-07-16T13:58:47.176Z,19.00
2018-07-16T14:01:16.158Z,19.20
2018-07-16T14:03:45.176Z,17.10
2018-07-16T14:06:14.047Z,18.40
2018-07-16T14:08:42.974Z,16.90
2018-07-16T14:13:40.900Z,17.40
2018-07-16T14:16:10.558Z,16.70
2018-07-16T14:18:39.515Z,17.90
2018-07-16T14:21:08.517Z,17.20
2018-07-16T14:23:37.599Z,16.90
2018-07-16T14:26:06.581Z,15.60
2018-07-16T14:28:35.461Z,15.40
2018-07-16T14:31:04.437Z,17.30
2018-07-16T14:33:33.442Z,18.90
2018-07-16T14:38:30.861Z,18.30
2018-07-16T14:40:59.764Z,17.60
2018-07-16T14:43:28.657Z,18.00
2018-07-16T14:45:57.583Z,18.20
2018-07-16T14:48:26.471Z,17.90
2018-07-16T14:50:55.430Z,18.20
2018-07-16T14:53:24.618Z,17.90
2018-07-16T14:55:53.539Z,16.70
2018-07-16T14:58:22.527Z,17.90
2018-07-16T15:00:51.434Z,16.90
2018-07-16T15:03:20.874Z,18.50
2018-07-16T15:05:49.991Z,16.90
2018-07-16T15:08:19.067Z,16.00
2018-07-16T15:10:48.101Z,15.70
2018-07-16T15:13:17.901Z,17.40
2018-07-16T15:15:47.144Z,17.20
2018-07-16T15:18:16.262Z,15.40
2018-07-16T15:20:46.095Z,15.80
2018-07-16T15:23:14.953Z,16.30
2018-07-16T15:25:43.863Z,17.50
2018-07-16T15:28:12.775Z,19.10
2018-07-16T15:30:41.683Z,19.10
2018-07-16T15:33:10.579Z,18.90
2018-07-16T15:35:39.596Z,20.30
2018-07-16T15:38:08.559Z,21.90
2018-07-16T15:40:37.429Z,21.10
2018-07-16T15:45:35.146Z,20.20
2018-07-16T15:48:04.055Z,18.60
2018-07-16T15:50:32.979Z,18.90
2018-07-16T15:53:01.889Z,19.60
2018-07-16T15:55:30.870Z,19.90
2018-07-16T15:58:00.094Z,20.10
2018-07-16T16:00:29.282Z,20.50
2018-07-16T16:02:58.356Z,19.20
2018-07-16T16:05:27.722Z,18.60
2018-07-16T16:07:56.786Z,17.00
2018-07-16T16:10:25.766Z,16.70
2018-07-16T16:12:54.720Z,17.30
2018-07-16T16:15:25.940Z,16.60
2018-07-16T16:18:00.645Z,15.60
2018-07-16T16:20:29.618Z,16.60
2018-07-16T16:22:59.700Z,15.40
2018-07-16T16:25:28.654Z,15.20
2018-07-16T16:27:57.595Z,15.90
2018-07-16T16:30:26.535Z,15.40
2018-07-16T16:32:55.600Z,15.10
2018-07-16T16:35:24.559Z,15.30
2018-07-16T16:37:53.597Z,15.50
2018-07-16T16:40:22.637Z,14.90
2018-07-16T16:42:51.937Z,15.70
2018-07-16T16:45:20.947Z,14.20
2018-07-16T16:47:49.822Z,15.30
2018-07-16T16:50:18.850Z,15.10
2018-07-16T16:52:48.199Z,15.00
2018-07-16T16:55:17.903Z,15.20
2018-07-16T16:57:46.979Z,15.10
2018-07-16T17:00:15.941Z,15.30
2018-07-16T17:02:44.830Z,15.30
2018-07-16T17:05:13.823Z,15.20
2018-07-16T17:07:42.784Z,16.40
2018-07-16T17:10:11.759Z,17.20
2018-07-16T17:12:40.662Z,18.60
2018-07-16T17:15:09.551Z,18.60
2018-07-16T17:17:38.445Z,19.70
2018-07-16T17:20:07.377Z,20.40
2018-07-16T17:22:36.318Z,20.80
2018-07-16T17:25:05.450Z,21.50
2018-07-16T17:27:34.361Z,22.10
2018-07-16T17:30:03.331Z,21.60
2018-07-16T17:32:32.206Z,21.60
2018-07-16T17:35:01.103Z,22.20
2018-07-16T17:37:30.116Z,23.00
2018-07-16T17:39:59.083Z,23.20
2018-07-16T17:42:28.169Z,23.60
2018-07-16T17:44:57.058Z,23.60
2018-07-16T17:49:54.537Z,27.20
2018-07-16T17:52:23.518Z,28.70
2018-07-16T17:54:52.551Z,29.70
2018-07-16T17:57:21.600Z,29.90
2018-07-16T17:59:50.553Z,29.40
2018-07-16T18:02:19.533Z,30.00
2018-07-16T18:04:48.463Z,30.00
2018-07-16T18:07:21.763Z,30.90
2018-07-16T18:09:52.414Z,31.60
2018-07-16T18:12:22.244Z,32.90
2018-07-16T18:14:51.463Z,32.60
2018-07-16T18:17:20.362Z,33.70
2018-07-16T18:19:49.264Z,34.20
2018-07-16T18:22:18.597Z,35.10
2018-07-16T18:27:16.841Z,35.30
2018-07-16T18:29:45.882Z,35.20
2018-07-16T18:32:14.938Z,35.40
2018-07-16T18:34:43.954Z,36.10
2018-07-16T18:37:12.914Z,36.50
2018-07-16T18:39:41.892Z,36.20
2018-07-16T18:42:10.863Z,36.20
2018-07-16T18:44:40.015Z,36.60
2018-07-16T18:47:08.911Z,36.90
2018-07-16T18:49:37.794Z,36.10
2018-07-16T18:52:06.738Z,36.40
2018-07-16T18:54:35.664Z,36.30
2018-07-16T18:57:04.630Z,37.70
2018-07-16T18:59:33.537Z,38.10
2018-07-16T19:02:02.448Z,37.80
2018-07-16T19:04:31.470Z,37.90
2018-07-16T19:07:04.270Z,38.00
2018-07-16T19:09:33.907Z,38.60
2018-07-16T19:12:02.987Z,38.80
2018-07-16T19:14:32.621Z,38.80
2018-07-16T19:17:02.018Z,38.80
2018-07-16T19:19:31.450Z,39.70
2018-07-16T19:22:00.390Z,40.10
2018-07-16T19:24:29.286Z,40.60
2018-07-16T19:26:58.212Z,39.50
2018-07-16T19:29:27.150Z,39.60
2018-07-16T19:31:56.133Z,41.20
2018-07-16T19:34:25.040Z,40.60
2018-07-16T19:36:54.103Z,40.60
2018-07-16T19:39:23.118Z,41.10
2018-07-16T19:44:21.359Z,42.10
2018-07-16T19:49:19.049Z,42.40
2018-07-16T19:51:47.941Z,42.40
2018-07-16T19:54:16.855Z,42.70
2018-07-16T19:59:14.272Z,44.00
2018-07-16T20:01:43.199Z,44.30
2018-07-16T20:04:12.124Z,44.70
2018-07-16T20:06:40.998Z,44.90
2018-07-16T20:09:09.993Z,45.30
2018-07-16T20:11:38.899Z,45.20
2018-07-16T20:14:07.807Z,45.50
2018-07-16T20:16:39.610Z,46.30
2018-07-16T20:19:08.585Z,46.20
2018-07-16T20:21:37.450Z,46.20
2018-07-16T20:24:07.015Z,46.90
2018-07-16T20:26:35.963Z,47.30
2018-07-16T20:29:05.356Z,48.20
2018-07-16T20:31:34.426Z,48.20
2018-07-16T20:34:03.691Z,49.50
2018-07-16T20:36:33.146Z,49.80
2018-07-16T20:39:02.115Z,50.20
2018-07-16T20:41:31.058Z,49.80
2018-07-16T20:43:59.972Z,50.00
2018-07-16T20:48:57.496Z,50.20
2018-07-16T20:53:54.987Z,51.20
2018-07-16T20:56:24.035Z,51.90
2018-07-16T20:58:52.951Z,51.50
2018-07-16T21:01:22.043Z,51.30
2018-07-16T21:03:50.930Z,51.20
2018-07-16T21:06:19.864Z,51.30
2018-07-16T21:08:48.751Z,52.00
2018-07-16T21:11:17.690Z,52.70
2018-07-16T21:13:46.706Z,53.30
2018-07-16T21:16:15.623Z,53.10
2018-07-16T21:18:44.585Z,54.00
2018-07-16T21:21:13.691Z,54.00
2018-07-16T21:23:42.918Z,54.90
2018-07-16T21:26:11.981Z,56.40
2018-07-16T21:31:09.571Z,56.30
2018-07-16T21:33:38.525Z,57.80
2018-07-16T21:36:07.803Z,58.30
2018-07-16T21:38:36.694Z,58.40
2018-07-16T21:41:05.591Z,59.20
2018-07-16T21:43:34.478Z,60.70
2018-07-16T21:46:04.006Z,59.60
2018-07-16T21:48:32.926Z,59.90
2018-07-16T21:51:01.846Z,60.10
2018-07-16T21:53:30.814Z,60.70
2018-07-16T21:55:59.674Z,62.00
2018-07-16T21:58:28.902Z,64.30
2018-07-16T22:00:57.830Z,63.70
2018-07-16T22:03:26.760Z,62.90
2018-07-16T22:05:55.651Z,62.70
2018-07-16T22:08:24.546Z,62.60
2018-07-16T22:10:53.477Z,62.60
2018-07-16T22:13:22.432Z,63.90
2018-07-16T22:18:19.829Z,64.70
2018-07-16T22:20:48.742Z,66.00
2018-07-16T22:23:17.699Z,67.10
2018-07-16T22:25:46.634Z,65.60
2018-07-16T22:28:15.558Z,66.70
2018-07-16T22:30:45.287Z,71.70
2018-07-16T22:33:14.186Z,71.00
2018-07-16T22:35:43.074Z,70.90
2018-07-16T22:38:11.994Z,70.90
2018-07-16T22:40:40.891Z,70.90
2018-07-16T22:43:09.789Z,71.70
2018-07-16T22:45:38.646Z,75.00
2018-07-16T22:48:07.539Z,75.90
2018-07-16T22:50:36.406Z,75.20
2018-07-16T22:53:05.307Z,76.30
2018-07-16T22:55:34.186Z,76.40
2018-07-16T22:58:03.102Z,76.30
2018-07-16T23:00:31.973Z,76.60
2018-07-16T23:03:00.858Z,77.90
2018-07-16T23:05:29.741Z,78.60
2018-07-16T23:07:58.637Z,80.00
2018-07-16T23:12:56.050Z,80.60
2018-07-16T23:15:24.940Z,81.20
2018-07-16T23:17:53.994Z,81.30
2018-07-16T23:20:22.886Z,80.80
2018-07-16T23:22:55.093Z,80.00
2018-07-16T23:25:23.982Z,80.90
2018-07-16T23:27:52.921Z,81.80
2018-07-16T23:30:21.826Z,82.40
2018-07-16T23:32:50.702Z,83.10
2018-07-16T23:35:19.591Z,84.30
2018-07-16T23:37:48.493Z,83.50
2018-07-16T23:40:17.419Z,83.10
2018-07-16T23:42:46.283Z,82.90
2018-07-16T23:45:15.305Z,83.70
2018-07-16T23:47:44.312Z,85.10
2018-07-16T23:50:13.262Z,86.80
2018-07-16T23:52:42.080Z,86.40
2018-07-16T23:55:10.975Z,86.10
2018-07-16T23:57:39.851Z,85.80
